WEATHER DATA

YESTERDAY
Time Temp. Dewp. Hum. Wind dir Wind speed Wind gust Bar. 1h Prec. 24h Prec.
00:20 11.2 4 61 221 0.3 1.1 1030.5 0.0000 0.0000
00:31 11 4 62 228 0.3 0.8 1030.5 0.0000 0.0000
00:41 10.7 3.7 62 212 0.6 1.4 1030.2 0.0000 0.0000
00:51 10.5 3.8 63 206 0.3 1.1 1030.4 0.0000 0.0000
01:01 10.2 3.7 64 205 0.6 1.9 1030.2 0.0000 0.0000
01:11 10 3.5 64 212 0.3 1.1 1030.1 0.0000 0.0000
01:21 9.8 3.5 65 209 0.3 1.1 1030 0.0000 0.0000
01:32 9.6 3.4 65 228 0.3 1.1 1030 0.0000 0.0000
01:42 9.4 3.2 65 221 0.3 1.1 1030 0.0000 0.0000
01:52 9.2 3 65 225 0.6 1.4 1029.9 0.0000 0.0000
02:01 9.1 3.1 66 212 0.3 1.4 1029.7 0.0000 0.0000
02:12 9 3 66 225 0.3 1.1 1029.6 0.0000 0.0000
02:22 8.9 2.9 66 225 0.3 0.8 1029.6 0.0000 0.0000
02:32 8.8 2.8 66 208 0.3 0.8 1029.4 0.0000 0.0000
02:42 8.7 2.7 66 225 0.6 1.4 1029.4 0.0000 0.0000
02:53 8.6 2.6 66 221 0.3 1.4 1029.3 0.0000 0.0000
03:02 8.5 2.5 66 220 0.3 1.1 1029.1 0.0000 0.0000
03:12 8.4 2.6 67 232 0.3 1.1 1029.1 0.0000 0.0000
03:23 8.2 2.4 67 227 0.6 1.1 1029.1 0.0000 0.0000
03:33 8.1 2.3 67 214 0.3 1.7 1028.9 0.0000 0.0000
03:43 8 2.3 67 234 0.6 1.1 1028.9 0.0000 0.0000
03:53 7.8 2.1 67 212 0.3 1.4 1028.9 0.0000 0.0000
04:03 7.7 2.2 68 225 0.3 1.1 1029 0.0000 0.0000
04:13 7.6 2.1 68 228 0.3 1.1 1029 0.0000 0.0000
04:23 7.5 2 68 213 0.3 0.8 1028.8 0.0000 0.0000
04:34 7.4 1.9 68 215 0.6 1.4 1028.8 0.0000 0.0000
04:44 7.3 1.8 68 218 0.6 1.1 1028.8 0.0000 0.0000
04:54 7.2 1.7 68 230 0.6 1.7 1028.6 0.0000 0.0000
05:03 7.1 1.8 69 228 0.3 1.1 1028.6 0.0000 0.0000
05:14 6.9 1.6 69 221 0.6 1.1 1028.5 0.0000 0.0000
05:24 6.9 1.8 70 218 0.6 1.1 1028.3 0.0000 0.0000
05:34 6.8 1.7 70 225 0.3 1.1 1028.3 0.0000 0.0000
05:44 6.7 1.6 70 218 0.6 1.4 1028.3 0.0000 0.0000
05:55 6.5 1.4 70 225 0.3 1.1 1028.3 0.0000 0.0000
06:04 6.4 1.3 70 228 0.3 1.1 1028.3 0.0000 0.0000
06:15 6.3 1.4 71 225 0.3 0.8 1028.3 0.0000 0.0000
06:25 6.2 1.3 71 225 0.3 1.1 1028.2 0.0000 0.0000
06:36 6.2 1.3 71 221 0.3 1.1 1028.2 0.0000 0.0000
06:46 6.2 1.3 71 219 0.3 0.8 1028.1 0.0000 0.0000
06:56 6.4 1.7 72 209 0.3 0.6 1028.2 0.0000 0.0000
07:06 6.8 2.1 72 215 0.3 0.8 1028.1 0.0000 0.0000
07:16 7.5 2.4 70 195 0.3 1.1 1028.2 0.0000 0.0000
07:26 8.1 2.8 69 236 0.6 1.1 1028.2 0.0000 0.0000
07:37 8.6 3 68 170 0.3 0.8 1028.2 0.0000 0.0000
07:48 9.2 3.4 67 225 0.3 0.6 1028.2 0.0000 0.0000
07:58 9.8 4 67 225 0.3 0.8 1028.1 0.0000 0.0000
08:08 10.4 4.1 65 90 0.3 0.8 1028.2 0.0000 0.0000
08:18 11 4.5 64 156 0.3 0.8 1027.9 0.0000 0.0000
08:28 11.6 4.8 63 270 0.3 1.1 1027.9 0.0000 0.0000
08:39 12.2 4.9 61 90 0.3 0.8 1028 0.0000 0.0000
08:48 12.6 4.8 59 90 0.3 0.8 1027.9 0.0000 0.0000
08:58 13 5.2 59 45 0.6 1.1 1028 0.0000 0.0000
09:09 13.3 5.5 59 57 0.6 1.4 1027.9 0.0000 0.0000
09:19 13.3 5.5 59 41 0.8 1.4 1027.8 0.0000 0.0000
09:29 13.5 5.2 57 51 0.8 1.7 1027.8 0.0000 0.0000
09:39 13.7 5.1 56 58 0.8 2.2 1027.7 0.0000 0.0000
09:49 14 5.1 55 60 0.8 1.7 1027.7 0.0000 0.0000
09:59 14.4 5.7 56 66 0.8 2.2 1027.7 0.0000 0.0000
10:09 14.7 6 56 63 0.8 1.7 1027.7 0.0000 0.0000
10:20 14.9 6 55 59 1.1 2.5 1027.4 0.0000 0.0000
10:30 15.2 6.5 56 45 0.8 1.9 1027.5 0.0000 0.0000
10:40 15.5 6.2 54 51 0.8 1.7 1027.2 0.0000 0.0000
11:00 15.8 6.5 54 45 0.8 1.9 1027 0.0000 0.0000
11:11 16.1 6.8 54 49 0.8 1.9 1027 0.0000 0.0000
11:21 16.5 7.2 54 52 0.8 1.9 1027 0.0000 0.0000
11:31 16.9 7.5 54 52 0.8 1.9 1026.7 0.0000 0.0000
11:41 17.2 7.5 53 40 1.1 2.2 1026.7 0.0000 0.0000
11:51 17.6 7.6 52 47 0.8 1.9 1026.6 0.0000 0.0000
12:01 17.9 7.6 51 53 0.8 2.5 1026.5 0.0000 0.0000
12:11 18.3 8 51 45 0.8 2.2 1026.4 0.0000 0.0000
12:22 18.6 8 50 56 0.8 1.7 1026.2 0.0000 0.0000
12:31 18.8 7.6 48 45 1.1 2.8 1026 0.0000 0.0000
12:41 19.1 7.5 47 35 0.8 2.2 1025.9 0.0000 0.0000
12:52 19.4 7.5 46 40 0.8 2.5 1025.6 0.0000 0.0000
13:02 19.6 5.6 40 36 1.1 2.5 1025.7 0.0000 0.0000
13:13 19.9 6.6 42 37 0.8 2.5 1025.5 0.0000 0.0000
13:23 20.1 6.1 40 30 1.1 2.8 1025.3 0.0000 0.0000
13:33 20.2 6.5 41 46 1.1 2.8 1025.1 0.0000 0.0000
13:43 20.3 6.6 41 45 0.6 2.2 1024.9 0.0000 0.0000
13:53 20.5 6.5 40 41 1.1 2.5 1024.9 0.0000 0.0000
14:03 20.6 6.2 39 48 1.4 3.3 1024.8 0.0000 0.0000
14:13 20.5 6.1 39 30 0.6 1.9 1024.7 0.0000 0.0000
14:23 20.6 6.2 39 39 0.3 1.4 1024.4 0.0000 0.0000
14:33 20.6 6.2 39 29 0.6 1.7 1024.4 0.0000 0.0000
14:44 20.7 5.9 38 37 1.4 3.6 1024.2 0.0000 0.0000
14:53 20.7 5.9 38 58 0.6 2.2 1023.9 0.0000 0.0000
15:03 20.8 5.6 37 59 0.6 1.9 1023.9 0.0000 0.0000
15:13 20.8 6 38 43 1.1 3.3 1023.8 0.0000 0.0000
15:24 20.8 5.6 37 40 1.4 3.1 1023.5 0.0000 0.0000
15:35 20.8 6 38 45 0.8 2.2 1023.4 0.0000 0.0000
15:45 20.9 6.1 38 29 0.8 1.9 1023.4 0.0000 0.0000
15:55 21 5.8 37 45 1.7 3.1 1023.3 0.0000 0.0000
16:05 21 5.8 37 30 0.8 2.2 1023.2 0.0000 0.0000
16:16 21 6.2 38 46 1.1 3.1 1023.1 0.0000 0.0000
16:25 21.1 6.6 39 40 1.1 2.8 1022.9 0.0000 0.0000
16:35 21.1 6.2 38 45 1.1 3.1 1022.8 0.0000 0.0000
16:46 21.1 5.9 37 52 1.1 2.8 1023 0.0000 0.0000
16:56 21.1 6.2 38 38 0.8 1.7 1022.7 0.0000 0.0000
17:05 21.2 5.6 36 37 1.1 2.8 1022.6 0.0000 0.0000
17:16 21.2 5.1 35 38 0.8 2.5 1022.6 0.0000 0.0000
17:26 21.1 4.6 34 40 1.4 3.3 1022.4 0.0000 0.0000
17:36 21.1 5.1 35 47 1.4 3.1 1022.3 0.0000 0.0000
17:46 21.1 5.1 35 40 1.1 2.2 1022.3 0.0000 0.0000
17:56 21 5.4 36 45 1.1 2.5 1022.2 0.0000 0.0000
18:06 21 5.4 36 38 1.4 3.9 1022.1 0.0000 0.0000
18:16 20.9 5.7 37 40 1.4 2.5 1022 0.0000 0.0000
18:27 20.8 6.4 39 38 0.8 1.7 1021.9 0.0000 0.0000
18:36 20.6 6.2 39 43 1.1 2.8 1021.9 0.0000 0.0000
18:46 20.4 5.6 38 38 1.4 3.6 1021.7 0.0000 0.0000
18:56 20.3 5.5 38 38 1.4 3.6 1021.7 0.0000 0.0000
19:07 20 6 40 45 0.6 1.9 1021.6 0.0000 0.0000
19:17 19.8 5.5 39 36 0.8 2.5 1021.5 0.0000 0.0000
19:27 19.6 5.6 40 45 0.8 3.1 1021.3 0.0000 0.0000
19:37 19.4 5.5 40 29 1.1 2.8 1021.4 0.0000 0.0000
19:47 19.1 5.2 40 37 1.1 2.8 1021.3 0.0000 0.0000
19:57 18.8 4.9 40 46 0.8 2.5 1021.3 0.0000 0.0000
20:07 18.6 5.5 42 90 0.3 1.1 1021.4 0.0000 0.0000
20:18 18.1 5.7 44 125 0.3 0.8 1021.6 0.0000 0.0000
20:28 17.7 5.3 44 0 0.6 1021.4 0.0000 0.0000
20:37 17.3 5.3 45 0 0.6 1021.5 0.0000 0.0000
20:48 17 5 45 153 0.3 0.8 1021.5 0.0000 0.0000
20:58 16.6 4.9 46 150 0.3 0.6 1021.5 0.0000 0.0000
21:08 16.3 5 47 0 0.6 1021.6 0.0000 0.0000
21:17 16 4.7 47 90 0.3 0.6 1021.7 0.0000 0.0000
21:27 15.7 4.7 48 161 0.3 0.6 1021.7 0.0000 0.0000
21:38 15.3 4.7 49 180 0.3 0.6 1021.6 0.0000 0.0000
21:48 15 4.7 50 203 0.3 0.8 1021.7 0.0000 0.0000
21:58 14.7 4.7 51 180 0.3 0.6 1021.7 0.0000 0.0000
22:08 14.3 4.6 52 180 0.3 0.6 1021.7 0.0000 0.0000
22:18 13.9 4.5 53 0 0.6 1021.6 0.0000 0.0000
22:28 13.6 4.5 54 205 0.3 0.8 1021.6 0.0000 0.0000
22:39 13.3 4.5 55 171 0.3 0.6 1021.5 0.0000 0.0000
22:48 12.9 4.3 56 189 0.3 0.6 1021.5 0.0000 0.0000
22:59 12.6 4.1 56 225 0.3 1.4 1021.5 0.0000 0.0000
23:08 12.4 3.9 56 207 0.6 1.4 1021.6 0.0000 0.0000
23:19 12.1 3.8 57 219 0.3 0.8 1021.6 0.0000 0.0000
23:30 11.8 3.8 58 205 0.3 1.1 1021.4 0.0000 0.0000
23:50 11.3 3.6 59 215 0.3 1.1 1021.4 0.0000 0.0000

DAY STATISTIC

2019-04-21
TEMPERATURE
AVERAGE
14.4
HIGH
21.2
17:05
LOW
6.2
06:25
PRESSURE
AVERAGE
1025.7
HIGH
1030.5
00:20
LOW
1021.3
19:27
DEWPOINT
AVERAGE
4.6
HIGH
8.0
12:11
LOW
1.3
06:04
HUMIDITY
AVERAGE
53
HIGH
72
06:56
LOW
34
17:26
WIND SPEED
AVERAGE
0.6
HIGH
1.7
15:55
WIND GUST
AVERAGE
1.7
HIGH
3.9
18:06
WIND DIRECTION
PREVAILING
NE
47.1%
N
0.0
NE
47.1
E
3.6
SE
2.9
S
6.5
SW
36.2
W
0.7
NW
0.0
PRECIPITATION
RAIN HOUR
0.0
RAIN DAY
0.0
TEMPERATURE (°C)
LOW
6.2
HIGH
21.2
AVERAGE
14.4
PRESSURE (hpa)
LOW
1021.3
HIGH
1030.5
AVERAGE
1025.7
DEVICE